createdAt,value
2019-03-05T00:00:18.851Z,10.83
2019-03-05T00:02:46.149Z,11.47
2019-03-05T00:05:13.575Z,14.37
2019-03-05T00:07:40.828Z,11.93
2019-03-05T00:10:10.621Z,11.30
2019-03-05T00:12:37.870Z,11.60
2019-03-05T00:15:08.444Z,11.00
2019-03-05T00:17:35.706Z,11.33
2019-03-05T00:20:11.203Z,10.93
2019-03-05T00:22:38.509Z,9.87
2019-03-05T00:25:11.401Z,11.03
2019-03-05T00:27:40.275Z,12.77
2019-03-05T00:30:32.264Z,10.60
2019-03-05T00:33:11.795Z,12.90
2019-03-05T00:35:48.212Z,10.43
2019-03-05T00:38:33.382Z,8.00
2019-03-05T00:41:10.178Z,12.17
2019-03-05T00:43:41.046Z,9.67
2019-03-05T00:46:17.657Z,10.17
2019-03-05T00:49:12.663Z,9.50
2019-03-05T00:51:59.887Z,10.10
2019-03-05T00:54:33.605Z,8.77
2019-03-05T00:57:22.635Z,11.97
2019-03-05T01:00:02.656Z,12.33
2019-03-05T01:02:33.503Z,10.57
2019-03-05T01:05:07.348Z,10.40
2019-03-05T01:07:34.644Z,10.50
2019-03-05T01:10:01.907Z,10.30
2019-03-05T01:12:29.448Z,13.07
2019-03-05T01:14:58.657Z,13.47
2019-03-05T01:17:25.910Z,13.57
2019-03-05T01:19:53.168Z,11.10
2019-03-05T01:22:20.439Z,20.37
2019-03-05T01:24:47.692Z,9.80
2019-03-05T01:27:15.017Z,9.57
2019-03-05T01:29:42.251Z,10.23
2019-03-05T01:32:23.745Z,11.60
2019-03-05T01:34:52.793Z,8.70
2019-03-05T01:37:20.172Z,13.37
2019-03-05T01:39:49.265Z,10.00
2019-03-05T01:42:16.511Z,8.43
2019-03-05T01:44:43.776Z,9.73
2019-03-05T01:47:11.100Z,6.73
2019-03-05T01:49:38.373Z,7.23
2019-03-05T01:52:05.633Z,7.07
2019-03-05T01:54:32.963Z,10.90
2019-03-05T01:57:00.220Z,10.40
2019-03-05T01:59:27.473Z,12.07
2019-03-05T02:01:54.761Z,6.63
2019-03-05T02:04:22.032Z,8.57
2019-03-05T02:06:49.283Z,12.23
2019-03-05T02:09:16.615Z,8.80
2019-03-05T02:11:43.954Z,7.80
2019-03-05T02:14:11.195Z,13.27
2019-03-05T02:16:38.478Z,9.07
2019-03-05T02:19:25.759Z,12.70
2019-03-05T02:21:53.061Z,11.53
2019-03-05T02:24:32.618Z,10.80
2019-03-05T02:27:18.659Z,9.33
2019-03-05T02:29:52.307Z,12.83
2019-03-05T02:32:41.368Z,11.03
2019-03-05T02:35:21.091Z,9.07
2019-03-05T02:38:10.230Z,10.77
2019-03-05T02:40:44.089Z,8.67
2019-03-05T02:43:21.132Z,7.90
2019-03-05T02:46:07.069Z,6.10
2019-03-05T02:48:43.718Z,9.80
2019-03-05T02:51:31.198Z,7.83
2019-03-05T02:54:27.570Z,10.83
2019-03-05T02:57:08.781Z,9.03
2019-03-05T02:59:36.258Z,8.87
2019-03-05T03:02:23.081Z,14.70
2019-03-05T03:04:52.214Z,12.53
2019-03-05T03:07:19.533Z,9.90
2019-03-05T03:09:50.413Z,11.00
2019-03-05T03:12:17.715Z,7.60
2019-03-05T03:14:44.961Z,9.70
2019-03-05T03:17:12.210Z,8.70
2019-03-05T03:19:39.519Z,8.60
2019-03-05T03:22:06.772Z,10.97
2019-03-05T03:24:34.018Z,11.13
2019-03-05T03:27:01.328Z,8.07
2019-03-05T03:29:28.575Z,9.90
2019-03-05T03:31:55.883Z,14.67
2019-03-05T03:34:23.201Z,6.73
2019-03-05T03:36:50.499Z,13.27
2019-03-05T03:39:17.748Z,7.53
2019-03-05T03:41:45.000Z,7.47
2019-03-05T03:44:12.368Z,9.97
2019-03-05T03:46:39.846Z,7.70
2019-03-05T03:49:07.154Z,7.97
2019-03-05T03:51:34.424Z,9.33
2019-03-05T03:54:01.732Z,12.20
2019-03-05T03:56:28.985Z,8.77
2019-03-05T03:58:56.238Z,9.37
2019-03-05T04:01:23.525Z,9.50
2019-03-05T04:03:50.671Z,9.73
2019-03-05T04:06:17.920Z,12.40
2019-03-05T04:08:45.348Z,11.53
2019-03-05T04:11:12.605Z,11.80
2019-03-05T04:13:39.845Z,10.17
2019-03-05T04:16:07.125Z,6.37
2019-03-05T04:18:34.388Z,11.43
2019-03-05T04:21:01.687Z,14.23
2019-03-05T04:23:28.937Z,14.43
2019-03-05T04:25:56.176Z,12.30
2019-03-05T04:28:23.465Z,9.83
2019-03-05T04:30:50.718Z,11.30
2019-03-05T04:33:18.028Z,15.87
2019-03-05T04:35:45.271Z,12.77
2019-03-05T04:38:12.419Z,14.07
2019-03-05T04:40:39.694Z,10.27
2019-03-05T04:43:06.949Z,15.60
2019-03-05T04:45:45.380Z,11.23
2019-03-05T04:48:12.640Z,22.50
2019-03-05T04:50:41.681Z,14.50
2019-03-05T04:53:08.955Z,16.33
2019-03-05T04:55:36.213Z,15.73
2019-03-05T04:58:03.518Z,12.40
2019-03-05T05:00:30.767Z,13.37
2019-03-05T05:02:58.545Z,18.13
2019-03-05T05:05:26.119Z,15.87
2019-03-05T05:07:53.372Z,15.33
2019-03-05T05:10:20.676Z,14.60
2019-03-05T05:12:47.971Z,17.03
2019-03-05T05:15:24.232Z,14.60
2019-03-05T05:17:51.557Z,17.83
2019-03-05T05:20:18.813Z,13.87
2019-03-05T05:22:46.072Z,15.53
2019-03-05T05:25:13.384Z,13.97
2019-03-05T05:27:40.637Z,12.67
2019-03-05T05:30:26.372Z,16.13
2019-03-05T05:32:53.639Z,19.57
2019-03-05T05:35:20.886Z,20.10
2019-03-05T05:37:48.264Z,20.03
2019-03-05T05:40:32.491Z,16.70
2019-03-05T05:43:00.080Z,16.00
2019-03-05T05:45:36.560Z,14.53
2019-03-05T05:48:03.861Z,18.60
2019-03-05T05:50:31.103Z,22.10
2019-03-05T05:52:58.368Z,16.83
2019-03-05T05:55:25.667Z,14.70
2019-03-05T05:57:52.916Z,14.90
2019-03-05T06:00:20.181Z,16.73
2019-03-05T06:02:47.475Z,17.83
2019-03-05T06:05:14.708Z,14.73
2019-03-05T06:07:43.414Z,15.07
2019-03-05T06:10:12.829Z,17.43
2019-03-05T06:12:40.077Z,18.40
2019-03-05T06:15:13.952Z,16.43
2019-03-05T06:17:41.105Z,12.77
2019-03-05T06:20:15.853Z,17.13
2019-03-05T06:22:43.093Z,15.43
2019-03-05T06:25:11.400Z,19.50
2019-03-05T06:27:38.647Z,22.97
2019-03-05T06:30:11.128Z,13.80
2019-03-05T06:32:38.384Z,14.73
2019-03-05T06:35:08.089Z,20.83
2019-03-05T06:37:35.378Z,20.23
2019-03-05T06:40:05.775Z,22.13
2019-03-05T06:42:33.036Z,20.37
2019-03-05T06:45:00.437Z,20.40
2019-03-05T06:47:27.709Z,16.60
2019-03-05T06:49:55.001Z,16.00
2019-03-05T06:52:22.251Z,20.40
2019-03-05T06:54:49.674Z,22.13
2019-03-05T06:57:16.910Z,15.63
2019-03-05T06:59:44.160Z,20.10
2019-03-05T07:02:11.663Z,15.60
2019-03-05T07:04:39.105Z,22.57
2019-03-05T07:07:06.373Z,13.70
2019-03-05T07:09:49.397Z,14.73
2019-03-05T07:12:23.132Z,15.17
2019-03-05T07:14:54.076Z,14.57
2019-03-05T07:17:43.108Z,24.93
2019-03-05T07:20:32.173Z,17.30
2019-03-05T07:23:12.848Z,19.73
2019-03-05T07:25:40.165Z,16.73
2019-03-05T07:28:07.531Z,15.33
2019-03-05T07:30:34.870Z,17.23
2019-03-05T07:33:02.205Z,21.17
2019-03-05T07:35:30.172Z,18.50
2019-03-05T07:37:57.552Z,17.87
2019-03-05T07:40:24.928Z,13.63
2019-03-05T07:42:52.290Z,15.00
2019-03-05T07:45:19.639Z,14.13
2019-03-05T07:47:46.992Z,14.10
2019-03-05T07:50:14.270Z,18.23
2019-03-05T07:52:41.592Z,15.40
2019-03-05T07:55:13.955Z,16.47
2019-03-05T07:57:40.295Z,17.20
2019-03-05T08:00:13.853Z,13.37
2019-03-05T08:02:41.157Z,12.43
2019-03-05T08:05:10.533Z,13.47
2019-03-05T08:07:37.841Z,15.37
2019-03-05T08:10:11.323Z,15.83
2019-03-05T08:13:01.213Z,18.37
2019-03-05T08:16:07.557Z,23.50
2019-03-05T08:18:35.041Z,13.10
2019-03-05T08:21:02.301Z,13.37
2019-03-05T08:23:29.605Z,14.23
2019-03-05T08:25:56.850Z,13.37
2019-03-05T08:28:24.099Z,12.77
2019-03-05T08:30:51.369Z,14.57
2019-03-05T08:33:18.625Z,18.30
2019-03-05T08:35:45.901Z,13.13
2019-03-05T08:38:13.206Z,9.23
2019-03-05T08:40:40.459Z,10.40
2019-03-05T08:43:07.710Z,12.47
2019-03-05T08:45:35.024Z,8.50
2019-03-05T08:48:02.285Z,13.67
2019-03-05T08:50:29.540Z,10.67
2019-03-05T08:52:56.872Z,8.30
2019-03-05T08:55:24.132Z,11.47
2019-03-05T08:57:51.392Z,11.97
2019-03-05T09:00:19.568Z,11.87
2019-03-05T09:02:48.931Z,14.77
2019-03-05T09:05:16.884Z,11.30
2019-03-05T09:07:44.437Z,12.30
2019-03-05T09:10:14.605Z,13.20
2019-03-05T09:12:41.847Z,10.77
2019-03-05T09:15:14.757Z,8.63
2019-03-05T09:17:42.004Z,11.77
2019-03-05T09:20:13.999Z,11.87
2019-03-05T09:22:41.315Z,12.80
2019-03-05T09:25:11.262Z,12.50
2019-03-05T09:27:38.534Z,13.23
2019-03-05T09:30:09.452Z,12.37
2019-03-05T09:32:36.715Z,13.90
2019-03-05T09:35:10.296Z,13.40
2019-03-05T09:37:37.557Z,14.40
2019-03-05T09:40:08.404Z,9.43
2019-03-05T09:42:39.936Z,15.27
2019-03-05T09:45:07.415Z,10.67
2019-03-05T09:47:34.696Z,9.30
2019-03-05T09:50:01.966Z,12.50
2019-03-05T09:52:29.212Z,12.20
2019-03-05T09:54:56.479Z,11.73
2019-03-05T09:57:23.775Z,10.33
2019-03-05T09:59:51.032Z,9.80
2019-03-05T10:02:18.272Z,14.23
2019-03-05T10:04:45.545Z,8.53
2019-03-05T10:07:18.905Z,7.33
2019-03-05T10:09:42.066Z,11.27
2019-03-05T10:12:09.336Z,10.70
2019-03-05T10:14:36.595Z,11.03
2019-03-05T10:17:03.958Z,8.83
2019-03-05T10:19:31.217Z,11.10
2019-03-05T10:21:58.544Z,7.67
2019-03-05T10:24:25.780Z,10.87
2019-03-05T10:26:53.034Z,6.20
2019-03-05T10:29:20.348Z,7.63
2019-03-05T10:31:47.591Z,10.40
2019-03-05T10:34:14.841Z,8.37
2019-03-05T10:36:42.131Z,8.80
2019-03-05T10:39:30.000Z,8.87
2019-03-05T10:41:49.676Z,9.40
2019-03-05T10:44:16.957Z,9.13
2019-03-05T10:46:44.848Z,14.27
2019-03-05T10:49:12.105Z,9.90
2019-03-05T10:51:39.364Z,11.47
2019-03-05T10:54:06.702Z,10.30
2019-03-05T10:56:33.944Z,9.90
2019-03-05T10:59:01.188Z,8.27
2019-03-05T11:01:28.457Z,8.77
2019-03-05T11:03:55.905Z,9.73
2019-03-05T11:06:23.217Z,10.93
2019-03-05T11:08:50.461Z,10.33
2019-03-05T11:11:17.700Z,13.83
2019-03-05T11:13:44.991Z,12.27
2019-03-05T11:16:12.515Z,11.93
2019-03-05T11:18:39.828Z,11.73
2019-03-05T11:21:07.172Z,10.93
2019-03-05T11:23:34.520Z,11.40
2019-03-05T11:26:01.789Z,11.23
2019-03-05T11:28:29.038Z,9.93
2019-03-05T11:30:56.326Z,11.27
2019-03-05T11:33:23.591Z,9.63
2019-03-05T11:35:50.867Z,7.50
2019-03-05T11:38:18.488Z,8.93
2019-03-05T11:40:45.743Z,12.67
2019-03-05T11:43:15.307Z,12.63
2019-03-05T11:45:43.112Z,6.77
2019-03-05T11:48:10.780Z,9.47
2019-03-05T11:50:38.036Z,15.50
2019-03-05T11:53:05.309Z,15.27
2019-03-05T11:55:32.561Z,9.90
2019-03-05T11:57:59.860Z,7.53
2019-03-05T12:00:49.671Z,11.47
2019-03-05T12:03:17.037Z,13.57
2019-03-05T12:05:44.314Z,14.77
2019-03-05T12:08:11.641Z,12.63
2019-03-05T12:10:38.912Z,12.00
2019-03-05T12:13:06.163Z,13.23
2019-03-05T12:15:37.783Z,12.70
2019-03-05T12:18:05.422Z,14.43
2019-03-05T12:20:32.680Z,12.20
2019-03-05T12:23:02.255Z,18.40
2019-03-05T12:25:29.017Z,9.07
2019-03-05T12:27:56.298Z,13.95
2019-03-05T12:30:26.007Z,17.17
2019-03-05T12:32:53.353Z,11.88
2019-03-05T12:35:20.599Z,12.60
2019-03-05T12:37:48.728Z,11.53
2019-03-05T12:40:20.053Z,15.97
2019-03-05T12:42:47.445Z,15.23
2019-03-05T12:45:16.848Z,11.80
2019-03-05T12:47:44.317Z,8.97
2019-03-05T12:50:15.251Z,10.47
2019-03-05T12:52:42.848Z,13.87
2019-03-05T12:55:12.251Z,18.50
2019-03-05T12:57:39.565Z,15.60
2019-03-05T13:00:12.285Z,12.23
2019-03-05T13:02:39.570Z,18.73
2019-03-05T13:05:09.903Z,14.10
2019-03-05T13:07:37.204Z,17.03
2019-03-05T13:10:07.722Z,7.77
2019-03-05T13:12:35.965Z,13.83
2019-03-05T13:15:07.699Z,12.40
2019-03-05T13:17:34.979Z,7.20
2019-03-05T13:20:02.415Z,11.80
2019-03-05T13:22:30.026Z,8.53
2019-03-05T13:24:57.383Z,18.20
2019-03-05T13:27:24.682Z,28.30
2019-03-05T13:29:52.015Z,29.53
2019-03-05T13:32:20.769Z,10.27
2019-03-05T13:34:49.021Z,12.27
2019-03-05T13:37:16.342Z,9.47
2019-03-05T13:39:43.663Z,11.07
2019-03-05T13:42:10.950Z,14.83
2019-03-05T13:44:38.274Z,12.53
2019-03-05T13:47:07.439Z,7.50
2019-03-05T13:49:40.867Z,11.30
2019-03-05T13:52:36.030Z,11.13
2019-03-05T13:55:23.560Z,16.50
2019-03-05T13:58:11.388Z,12.10
2019-03-05T14:00:39.306Z,13.20
2019-03-05T14:03:10.436Z,9.13
2019-03-05T14:05:50.310Z,11.07
2019-03-05T14:08:30.846Z,10.93
2019-03-05T14:10:58.737Z,17.67
2019-03-05T14:13:26.077Z,13.00
2019-03-05T14:15:54.801Z,7.93
2019-03-05T14:18:22.378Z,7.90
2019-03-05T14:20:51.333Z,13.80
2019-03-05T14:23:18.613Z,11.57
2019-03-05T14:25:45.977Z,11.40
2019-03-05T14:28:13.287Z,18.80
2019-03-05T14:30:40.669Z,18.30
2019-03-05T14:33:08.262Z,7.00
2019-03-05T14:35:35.546Z,7.50
2019-03-05T14:38:02.922Z,8.87
2019-03-05T14:40:30.628Z,14.33
2019-03-05T14:42:58.103Z,7.13
2019-03-05T14:45:27.881Z,9.67
2019-03-05T14:47:56.995Z,14.27
2019-03-05T14:50:24.401Z,13.20
2019-03-05T14:52:51.841Z,11.37
2019-03-05T14:55:19.130Z,8.47
2019-03-05T14:57:46.787Z,10.67
2019-03-05T15:00:21.147Z,11.27
2019-03-05T15:02:48.561Z,12.73
2019-03-05T15:05:15.843Z,11.97
2019-03-05T15:07:44.966Z,13.97
2019-03-05T15:10:12.257Z,11.83
2019-03-05T15:12:39.569Z,7.07
2019-03-05T15:15:13.286Z,11.97
2019-03-05T15:17:41.867Z,11.33
2019-03-05T15:20:10.857Z,12.27
2019-03-05T15:22:38.230Z,8.90
2019-03-05T15:25:11.376Z,9.40
2019-03-05T15:27:38.706Z,8.37
2019-03-05T15:30:11.584Z,14.37
2019-03-05T15:32:38.890Z,7.23
2019-03-05T15:35:06.680Z,10.77
2019-03-05T15:37:34.062Z,9.80
2019-03-05T15:40:01.456Z,8.83
2019-03-05T15:42:28.915Z,9.17
2019-03-05T15:44:56.356Z,12.63
2019-03-05T15:47:23.670Z,9.13
2019-03-05T15:49:51.218Z,14.90
2019-03-05T15:52:18.548Z,10.33
2019-03-05T15:54:45.938Z,11.57
2019-03-05T15:57:13.422Z,18.13
2019-03-05T15:59:40.831Z,18.03
2019-03-05T16:02:08.485Z,18.83
2019-03-05T16:04:36.096Z,7.93
2019-03-05T16:07:06.891Z,9.57
2019-03-05T16:09:39.682Z,10.00
2019-03-05T16:12:05.971Z,5.73
2019-03-05T16:14:33.876Z,9.83
2019-03-05T16:17:01.135Z,6.47
2019-03-05T16:19:28.448Z,6.23
2019-03-05T16:21:55.838Z,9.20
2019-03-05T16:24:23.204Z,6.80
2019-03-05T16:26:51.252Z,11.30
2019-03-05T16:29:20.134Z,11.80
2019-03-05T16:31:50.041Z,6.80
2019-03-05T16:34:34.987Z,14.73
2019-03-05T16:37:07.394Z,7.27
2019-03-05T16:39:52.870Z,12.20
2019-03-05T16:42:38.366Z,7.83
2019-03-05T16:45:24.923Z,10.13
2019-03-05T16:47:54.007Z,13.93
2019-03-05T16:50:29.313Z,9.43
2019-03-05T16:53:10.547Z,12.33
2019-03-05T16:55:39.686Z,10.73
2019-03-05T16:58:20.395Z,8.23
2019-03-05T17:01:04.151Z,13.90
2019-03-05T17:03:39.245Z,11.97
2019-03-05T17:06:08.495Z,9.53
2019-03-05T17:08:43.189Z,11.73
2019-03-05T17:11:30.103Z,12.77
2019-03-05T17:13:57.426Z,10.87
2019-03-05T17:16:24.961Z,11.73
2019-03-05T17:18:52.217Z,12.87
2019-03-05T17:21:27.112Z,9.57
2019-03-05T17:23:48.554Z,9.97
2019-03-05T17:26:15.859Z,14.33
2019-03-05T17:28:43.462Z,13.30
2019-03-05T17:31:10.755Z,11.10
2019-03-05T17:33:38.065Z,11.33
2019-03-05T17:36:05.319Z,11.73
2019-03-05T17:38:32.580Z,8.63
2019-03-05T17:40:59.913Z,15.17
2019-03-05T17:43:27.154Z,11.20
2019-03-05T17:45:54.423Z,9.83
2019-03-05T17:48:21.786Z,9.00
2019-03-05T17:50:49.090Z,10.67
2019-03-05T17:53:16.453Z,11.63
2019-03-05T17:55:44.069Z,11.47
2019-03-05T17:58:11.371Z,14.57
2019-03-05T18:00:40.429Z,12.20
2019-03-05T18:03:07.671Z,11.97
2019-03-05T18:05:34.949Z,8.93
2019-03-05T18:08:02.358Z,14.60
2019-03-05T18:10:29.699Z,17.57
2019-03-05T18:12:57.002Z,14.27
2019-03-05T18:15:24.313Z,9.33
2019-03-05T18:17:51.691Z,8.27
2019-03-05T18:20:20.497Z,8.20
2019-03-05T18:22:48.101Z,13.00
2019-03-05T18:25:16.151Z,13.33
2019-03-05T18:27:43.470Z,13.13
2019-03-05T18:30:22.611Z,13.00
2019-03-05T18:32:49.914Z,9.70
2019-03-05T18:35:19.760Z,14.37
2019-03-05T18:37:47.021Z,6.73
2019-03-05T18:40:15.521Z,7.53
2019-03-05T18:42:43.101Z,8.33
2019-03-05T18:45:22.407Z,5.77
2019-03-05T18:47:49.761Z,8.67
2019-03-05T18:50:18.786Z,7.47
2019-03-05T18:52:46.942Z,4.93
2019-03-05T18:55:16.001Z,8.83
2019-03-05T18:57:43.655Z,10.17
2019-03-05T19:00:20.695Z,8.00
2019-03-05T19:02:48.376Z,5.87
2019-03-05T19:05:16.051Z,7.17
2019-03-05T19:07:43.316Z,8.63
2019-03-05T19:10:13.729Z,8.60
2019-03-05T19:12:41.053Z,8.83
2019-03-05T19:15:14.796Z,9.93
2019-03-05T19:17:42.158Z,10.80
2019-03-05T19:20:12.133Z,10.57
2019-03-05T19:22:39.516Z,9.93
2019-03-05T19:25:10.401Z,12.90
2019-03-05T19:27:38.664Z,8.93
2019-03-05T19:30:15.543Z,9.80
2019-03-05T19:32:44.002Z,7.73
2019-03-05T19:35:11.546Z,10.23
2019-03-05T19:37:38.999Z,8.47
2019-03-05T19:40:17.817Z,7.47
2019-03-05T19:42:45.165Z,9.43
2019-03-05T19:45:15.046Z,12.30
2019-03-05T19:47:42.379Z,11.93
2019-03-05T19:50:14.902Z,11.77
2019-03-05T19:52:42.261Z,17.73
2019-03-05T19:55:12.219Z,18.43
2019-03-05T19:57:39.579Z,13.07
2019-03-05T20:00:25.941Z,16.77
2019-03-05T20:02:53.248Z,20.20
2019-03-05T20:05:20.856Z,14.63
2019-03-05T20:07:50.742Z,20.27
2019-03-05T20:10:21.156Z,21.73
2019-03-05T20:12:48.436Z,18.53
2019-03-05T20:15:16.694Z,20.57
2019-03-05T20:17:44.193Z,21.47
2019-03-05T20:20:13.870Z,19.20
2019-03-05T20:22:41.150Z,21.17
2019-03-05T20:25:23.808Z,21.03
2019-03-05T20:27:51.367Z,19.87
2019-03-05T20:30:20.902Z,27.60
2019-03-05T20:32:48.290Z,18.50
2019-03-05T20:35:15.889Z,22.93
2019-03-05T20:37:43.419Z,30.83
2019-03-05T20:40:22.479Z,23.70
2019-03-05T20:42:49.825Z,20.90
2019-03-05T20:45:30.033Z,18.13
2019-03-05T20:47:57.559Z,17.27
2019-03-05T20:50:24.824Z,24.13
2019-03-05T20:52:52.877Z,24.50
2019-03-05T20:55:22.078Z,25.17
2019-03-05T20:57:49.369Z,21.80
2019-03-05T21:00:22.113Z,32.20
2019-03-05T21:02:49.467Z,39.43
2019-03-05T21:05:16.783Z,48.90
2019-03-05T21:07:44.328Z,34.27
2019-03-05T21:10:11.567Z,37.77
2019-03-05T21:12:38.835Z,31.03
2019-03-05T21:17:59.255Z,29.70
2019-03-05T21:20:26.556Z,29.03
2019-03-05T21:22:53.910Z,32.43
2019-03-05T21:25:21.156Z,31.33
2019-03-05T21:27:48.415Z,34.23
2019-03-05T21:30:19.386Z,31.60
2019-03-05T21:32:46.651Z,35.80
2019-03-05T21:35:14.617Z,36.97
2019-03-05T21:37:42.193Z,34.43
2019-03-05T21:40:21.830Z,36.67
2019-03-05T21:42:49.514Z,39.10
2019-03-05T21:45:26.386Z,45.43
2019-03-05T21:47:53.721Z,44.73
2019-03-05T21:50:23.033Z,39.70
2019-03-05T21:52:50.087Z,40.63
2019-03-05T21:55:17.522Z,43.23
2019-03-05T21:57:44.788Z,43.17
2019-03-05T22:00:32.417Z,41.00
2019-03-05T22:03:00.589Z,42.20
2019-03-05T22:05:28.145Z,40.83
2019-03-05T22:07:56.915Z,38.97
2019-03-05T22:10:24.476Z,38.33
2019-03-05T22:12:52.138Z,39.67
2019-03-05T22:15:20.961Z,43.23
2019-03-05T22:17:48.856Z,40.67
2019-03-05T22:20:17.295Z,44.40
2019-03-05T22:22:44.719Z,41.97
2019-03-05T22:25:14.969Z,41.23
2019-03-05T22:27:42.212Z,41.90
2019-03-05T22:30:20.988Z,40.80
2019-03-05T22:32:48.142Z,46.40
2019-03-05T22:35:16.436Z,46.70
2019-03-05T22:37:43.681Z,42.20
2019-03-05T22:40:12.857Z,47.17
2019-03-05T22:42:40.117Z,50.67
2019-03-05T22:45:13.807Z,48.33
2019-03-05T22:47:41.063Z,50.67
2019-03-05T22:50:10.120Z,52.17
2019-03-05T22:52:37.398Z,83.53
2019-03-05T22:55:07.166Z,51.87
2019-03-05T22:57:34.445Z,54.40
2019-03-05T23:00:01.811Z,49.20
2019-03-05T23:02:29.279Z,53.63
2019-03-05T23:04:56.534Z,53.93
2019-03-05T23:07:23.838Z,57.97
2019-03-05T23:09:51.112Z,51.50
2019-03-05T23:12:18.351Z,41.73
2019-03-05T23:14:45.741Z,54.10
2019-03-05T23:17:13.250Z,45.57
2019-03-05T23:19:40.630Z,54.33
2019-03-05T23:22:07.889Z,52.23
2019-03-05T23:24:35.210Z,58.90
2019-03-05T23:27:02.761Z,56.60
2019-03-05T23:29:32.149Z,62.40
2019-03-05T23:31:59.447Z,56.90
2019-03-05T23:34:26.717Z,72.57
2019-03-05T23:36:53.979Z,51.33
2019-03-05T23:39:21.264Z,56.40
2019-03-05T23:41:48.577Z,45.53
2019-03-05T23:44:15.873Z,66.07
2019-03-05T23:46:43.198Z,43.90
2019-03-05T23:49:10.454Z,53.87
2019-03-05T23:51:37.740Z,39.80
2019-03-05T23:54:04.990Z,39.43
2019-03-05T23:56:32.235Z,27.60
2019-03-05T23:58:59.504Z,25.57
